Time;durP1;ratioP1;P1;durP2;ratioP2;P2;SDS_P1;SDS_P2;PMS_P1;PMS_P2;Temp;Humidity;BMP_temperature;BMP_pressure;BME280_temperature;BME280_humidity;BME280_pressure;Samples;Min_cycle;Max_cycle;Signal;HPM_P1;HPM_P2
2022/12/24 00:01:13;;;;;;;0.17;0.17;;;9.00;99.90;;;;;;5076321;28;20134;-82
2022/12/24 00:03:39;;;;;;;0.00;0.00;;;9.10;99.90;;;;;;5059767;28;20396;-83
2022/12/24 00:06:06;;;;;;;0.10;0.10;;;9.00;99.90;;;;;;5075949;28;20048;-82
2022/12/24 00:08:33;;;;;;;0.30;0.20;;;9.00;99.90;;;;;;5093035;28;20161;-82
2022/12/24 00:10:58;;;;;;;0.00;0.00;;;9.10;99.90;;;;;;5093048;28;20091;-82
2022/12/24 00:13:24;;;;;;;0.10;0.10;;;9.10;99.90;;;;;;5075946;28;20086;-82
2022/12/24 00:15:50;;;;;;;0.65;0.13;;;9.10;99.90;;;;;;5076149;28;20044;-83
2022/12/24 00:18:16;;;;;;;0.65;0.63;;;9.00;99.90;;;;;;5059218;28;20048;-83
2022/12/24 00:20:47;;;;;;;1.80;0.57;;;9.00;99.90;;;;;;5059804;28;20044;-83
2022/12/24 00:23:14;;;;;;;0.00;0.00;;;9.00;99.90;;;;;;5076162;28;20055;-82
2022/12/24 00:25:40;;;;;;;0.57;0.20;;;9.00;99.90;;;;;;5059355;28;20131;-83
2022/12/24 00:28:05;;;;;;;0.00;0.00;;;9.00;99.90;;;;;;5075956;28;20088;-83
2022/12/24 00:30:31;;;;;;;1.45;0.08;;;9.00;99.90;;;;;;5093662;28;20051;-83
2022/12/24 00:32:57;;;;;;;0.10;0.10;;;9.00;99.90;;;;;;5075637;28;20056;-83
2022/12/24 00:35:23;;;;;;;0.30;0.30;;;9.00;99.90;;;;;;5092698;28;20050;-83
2022/12/24 00:37:49;;;;;;;0.08;0.00;;;9.00;99.90;;;;;;5093095;28;20456;-83
2022/12/24 00:40:16;;;;;;;0.00;0.00;;;9.00;99.90;;;;;;5075875;28;20093;-83
2022/12/24 00:42:42;;;;;;;2.28;0.10;;;9.00;99.90;;;;;;5076007;28;20094;-82
2022/12/24 00:45:09;;;;;;;0.10;0.10;;;9.00;99.90;;;;;;5075836;28;20074;-83
2022/12/24 00:47:35;;;;;;;0.00;0.00;;;9.00;99.90;;;;;;5092294;28;20040;-83
2022/12/24 00:50:01;;;;;;;0.00;0.00;;;9.00;99.90;;;;;;5075807;28;20051;-83
2022/12/24 00:52:27;;;;;;;0.00;0.00;;;9.00;99.90;;;;;;5059214;28;20087;-83
2022/12/24 00:54:52;;;;;;;0.00;0.00;;;9.00;99.90;;;;;;5092471;28;20044;-82
2022/12/24 00:57:18;;;;;;;0.03;0.03;;;9.10;99.90;;;;;;5059114;28;20048;-83
2022/12/24 00:59:44;;;;;;;0.00;0.00;;;9.10;99.90;;;;;;5042503;28;20498;-82
2022/12/24 01:02:09;;;;;;;0.05;0.05;;;9.10;99.90;;;;;;5075669;28;20048;-82
2022/12/24 01:07:19;;;;;;;1.00;0.40;;;9.10;99.90;;;;;;5078168;28;20570;-83
2022/12/24 01:09:45;;;;;;;0.00;0.00;;;9.10;99.90;;;;;;5075849;28;20127;-83
2022/12/24 01:12:11;;;;;;;0.00;0.00;;;9.10;99.90;;;;;;5062870;28;20136;-83
2022/12/24 01:14:37;;;;;;;0.00;0.00;;;9.10;99.90;;;;;;5079383;28;20205;-83
2022/12/24 01:17:03;;;;;;;0.00;0.00;;;9.10;99.90;;;;;;5096254;28;20044;-83
2022/12/24 01:19:29;;;;;;;0.00;0.00;;;9.10;99.90;;;;;;5096175;28;20153;-83
2022/12/24 01:21:54;;;;;;;0.00;0.00;;;9.10;99.90;;;;;;5079257;28;20119;-83
2022/12/24 01:24:20;;;;;;;0.10;0.00;;;9.00;99.90;;;;;;5079362;28;20044;-82
2022/12/24 01:26:46;;;;;;;0.00;0.00;;;9.10;99.90;;;;;;5079369;28;20051;-83
2022/12/24 01:29:12;;;;;;;0.17;0.05;;;9.10;99.90;;;;;;5064371;28;20502;-82
2022/12/24 01:31:37;;;;;;;0.00;0.00;;;9.10;99.90;;;;;;5062966;28;20075;-83
2022/12/24 01:34:03;;;;;;;0.00;0.00;;;9.00;99.90;;;;;;5097653;28;20178;-83
2022/12/24 01:36:29;;;;;;;1.17;0.55;;;9.10;99.90;;;;;;5096383;28;20130;-82
2022/12/24 01:38:55;;;;;;;0.22;0.22;;;9.10;99.90;;;;;;5095577;28;20060;-83
2022/12/24 01:44:30;;;;;;;0.00;0.00;;;9.10;99.90;;;;;;5096047;28;20129;-82
2022/12/24 01:46:59;;;;;;;0.00;0.00;;;9.10;99.90;;;;;;5078974;28;20468;-83
2022/12/24 01:49:25;;;;;;;0.00;0.00;;;9.10;99.90;;;;;;5078680;28;20044;-83
2022/12/24 01:51:57;;;;;;;0.00;0.00;;;9.10;99.90;;;;;;5078654;28;20368;-83
2022/12/24 01:54:29;;;;;;;0.00;0.00;;;9.10;99.90;;;;;;5078564;28;20063;-83
2022/12/24 01:57:01;;;;;;;0.00;0.00;;;9.10;99.90;;;;;;5095505;28;20052;-83
2022/12/24 01:59:28;;;;;;;0.10;0.00;;;9.10;99.90;;;;;;5078626;28;20477;-82
2022/12/24 02:01:54;;;;;;;0.00;0.00;;;9.10;99.90;;;;;;5078676;28;20050;-80
2022/12/24 02:04:51;;;;;;;0.00;0.00;;;9.00;99.90;;;;;;5095147;28;20044;-80
2022/12/24 02:07:18;;;;;;;0.00;0.00;;;9.10;99.90;;;;;;5095535;28;20056;-80
2022/12/24 02:09:44;;;;;;;0.00;0.00;;;9.00;99.90;;;;;;5078325;28;20054;-80
2022/12/24 02:12:10;;;;;;;0.00;0.00;;;9.00;99.90;;;;;;5094825;28;20044;-80
2022/12/24 02:14:36;;;;;;;0.30;0.15;;;9.00;99.90;;;;;;5078344;28;20040;-81
2022/12/24 02:17:27;;;;;;;0.85;0.60;;;9.00;99.90;;;;;;5078665;28;20067;-81
2022/12/24 02:20:11;;;;;;;0.65;0.45;;;9.00;99.90;;;;;;5095025;28;20369;-81
2022/12/24 02:22:52;;;;;;;1.40;1.33;;;9.00;99.90;;;;;;5094954;28;20047;-81
2022/12/24 02:25:38;;;;;;;0.47;0.47;;;9.00;99.90;;;;;;5095793;28;20360;-82
2022/12/24 02:28:39;;;;;;;0.00;0.00;;;9.00;99.90;;;;;;5095117;28;20051;-81
2022/12/24 02:31:26;;;;;;;3.65;0.90;;;9.10;99.90;;;;;;5078689;28;20388;-81
2022/12/24 02:33:56;;;;;;;3.50;1.33;;;9.10;99.90;;;;;;5095059;28;20452;-81
2022/12/24 02:36:29;;;;;;;0.00;0.00;;;9.10;99.90;;;;;;5077386;28;20044;-82
2022/12/24 02:39:03;;;;;;;0.00;0.00;;;9.10;99.90;;;;;;5094240;28;20491;-82
2022/12/24 02:44:28;;;;;;;9.85;0.30;;;9.10;99.90;;;;;;5094263;28;20461;-82
2022/12/24 02:46:55;;;;;;;0.00;0.00;;;9.10;99.90;;;;;;5095361;28;20044;-83
2022/12/24 02:49:23;;;;;;;0.00;0.00;;;9.10;99.90;;;;;;5077607;28;20047;-83
2022/12/24 02:51:49;;;;;;;2.28;0.55;;;9.10;99.90;;;;;;5077509;28;20047;-83
2022/12/24 02:54:15;;;;;;;0.52;0.35;;;9.10;99.90;;;;;;5060907;28;20398;-83
2022/12/24 02:57:25;;;;;;;0.00;0.00;;;9.10;99.90;;;;;;5060788;28;20055;-82
2022/12/24 03:00:06;;;;;;;13.77;1.70;;;9.10;99.90;;;;;;5094318;28;20548;-83
2022/12/24 03:03:06;;;;;;;0.08;0.08;;;9.20;99.90;;;;;;5094133;28;20511;-83
2022/12/24 03:05:44;;;;;;;0.40;0.40;;;9.20;99.90;;;;;;5075824;28;20059;-82
2022/12/24 03:08:48;;;;;;;0.65;0.43;;;9.20;99.90;;;;;;5094912;28;20077;-83
2022/12/24 03:11:14;;;;;;;0.08;0.00;;;9.20;99.90;;;;;;5088616;28;20052;-83
2022/12/24 03:13:42;;;;;;;0.10;0.10;;;9.20;99.90;;;;;;5094061;28;20094;-82
2022/12/24 03:16:16;;;;;;;0.38;0.20;;;9.20;99.90;;;;;;5077371;28;20462;-83
2022/12/24 03:18:46;;;;;;;0.25;0.25;;;9.20;99.90;;;;;;5093738;28;20051;-82
2022/12/24 03:21:30;;;;;;;0.00;0.00;;;9.20;99.90;;;;;;5093983;28;20040;-83
2022/12/24 03:23:56;;;;;;;2.33;0.40;;;9.20;99.90;;;;;;5076953;28;20480;-83
2022/12/24 03:26:23;;;;;;;0.28;0.20;;;9.10;99.90;;;;;;5060390;28;20047;-82
2022/12/24 03:28:49;;;;;;;0.03;0.03;;;9.20;99.90;;;;;;5093051;28;20040;-83
2022/12/24 03:31:15;;;;;;;0.45;0.45;;;9.20;99.90;;;;;;5093608;28;20051;-82
2022/12/24 03:33:42;;;;;;;0.00;0.00;;;9.20;99.90;;;;;;5092994;28;20043;-82
2022/12/24 03:36:08;;;;;;;1.13;1.05;;;9.10;99.90;;;;;;5076089;28;20106;-82
2022/12/24 03:38:34;;;;;;;0.75;0.43;;;9.20;99.90;;;;;;5043228;28;20052;-82
2022/12/24 03:41:00;;;;;;;0.00;0.00;;;9.20;99.90;;;;;;5093443;28;20056;-82
2022/12/24 03:43:26;;;;;;;1.65;1.30;;;9.20;99.90;;;;;;5076322;28;20084;-82
2022/12/24 03:45:51;;;;;;;0.40;0.40;;;9.10;99.90;;;;;;5076502;28;20098;-82
2022/12/24 03:48:17;;;;;;;1.35;0.47;;;9.20;99.90;;;;;;5093373;28;20097;-82
2022/12/24 03:50:43;;;;;;;11.70;1.33;;;9.20;99.90;;;;;;5093325;28;20050;-82
2022/12/24 03:53:08;;;;;;;0.10;0.10;;;9.20;99.90;;;;;;5093331;28;20109;-82
2022/12/24 03:55:34;;;;;;;6.05;0.90;;;9.10;99.90;;;;;;5076382;28;20044;-82
2022/12/24 03:58:00;;;;;;;0.10;0.10;;;9.20;99.90;;;;;;5076189;28;20036;-82
2022/12/24 04:00:25;;;;;;;0.08;0.08;;;9.20;99.90;;;;;;5093199;28;20094;-82
2022/12/24 04:02:52;;;;;;;0.40;0.40;;;9.10;99.90;;;;;;5059870;28;20043;-82
2022/12/24 04:05:19;;;;;;;0.43;0.22;;;9.20;99.90;;;;;;5075725;28;20152;-82
2022/12/24 04:07:45;;;;;;;6.40;1.63;;;9.20;99.90;;;;;;5093134;28;20059;-82
2022/12/24 04:10:12;;;;;;;0.55;0.45;;;9.20;99.90;;;;;;5076158;28;20499;-82
2022/12/24 04:12:38;;;;;;;0.00;0.00;;;9.20;99.90;;;;;;5093011;28;20131;-82
2022/12/24 04:15:05;;;;;;;4.47;1.55;;;9.20;99.90;;;;;;5076150;28;20127;-83
2022/12/24 04:17:31;;;;;;;0.00;0.00;;;9.20;99.90;;;;;;5092802;28;20070;-82
2022/12/24 04:19:56;;;;;;;0.35;0.35;;;9.20;99.90;;;;;;5092855;28;20074;-82
2022/12/24 04:22:22;;;;;;;0.52;0.08;;;9.20;99.90;;;;;;5092635;28;20040;-82
2022/12/24 04:24:48;;;;;;;1.60;0.57;;;9.20;99.90;;;;;;5092881;28;20086;-82
2022/12/24 04:27:14;;;;;;;1.67;0.65;;;9.20;99.90;;;;;;5092829;28;20040;-82
2022/12/24 04:29:40;;;;;;;0.00;0.00;;;9.20;99.90;;;;;;5092844;28;20127;-82
2022/12/24 04:32:06;;;;;;;2.28;0.35;;;9.20;99.90;;;;;;5092829;28;20088;-82
2022/12/24 04:34:32;;;;;;;15.90;1.55;;;9.20;99.90;;;;;;5075772;28;20426;-82
2022/12/24 04:36:57;;;;;;;2.97;0.10;;;9.20;99.90;;;;;;5075388;28;20106;-82
2022/12/24 04:39:23;;;;;;;0.55;0.52;;;9.20;99.90;;;;;;5094077;28;20067;-82
2022/12/24 04:41:49;;;;;;;0.03;0.03;;;9.10;99.90;;;;;;5075934;28;20131;-82
2022/12/24 04:44:14;;;;;;;0.93;0.90;;;9.10;99.90;;;;;;5075797;28;20384;-82
2022/12/24 04:46:41;;;;;;;0.13;0.13;;;9.10;99.90;;;;;;5096257;28;20048;-82
2022/12/24 04:49:07;;;;;;;0.00;0.00;;;9.20;99.90;;;;;;5079995;28;20047;-82
2022/12/24 04:51:33;;;;;;;0.60;0.52;;;9.20;99.90;;;;;;5079848;28;20080;-82
2022/12/24 04:53:59;;;;;;;6.13;0.82;;;9.10;99.90;;;;;;5063470;28;20097;-81
2022/12/24 04:56:28;;;;;;;0.10;0.10;;;9.10;99.90;;;;;;5096632;28;20486;-82
2022/12/24 04:58:54;;;;;;;0.10;0.10;;;9.10;99.90;;;;;;5079772;28;20095;-82
2022/12/24 05:01:25;;;;;;;0.30;0.30;;;9.10;99.90;;;;;;5063130;28;20067;-82
2022/12/24 05:03:51;;;;;;;0.85;0.55;;;9.10;99.90;;;;;;5097409;28;20044;-82
2022/12/24 05:06:19;;;;;;;1.55;0.40;;;9.10;99.90;;;;;;5078806;28;20458;-82
2022/12/24 05:08:45;;;;;;;0.13;0.13;;;9.10;99.90;;;;;;5079499;28;20044;-82
2022/12/24 05:11:14;;;;;;;0.68;0.28;;;9.20;99.90;;;;;;5096340;28;20043;-82
2022/12/24 05:13:44;;;;;;;1.58;0.70;;;9.20;99.90;;;;;;5096495;28;20046;-82
2022/12/24 05:16:11;;;;;;;0.65;0.43;;;9.20;99.90;;;;;;5096383;28;20143;-82
2022/12/24 05:18:36;;;;;;;12.48;0.63;;;9.10;99.90;;;;;;5096006;28;20048;-82
2022/12/24 05:21:06;;;;;;;11.50;2.55;;;9.20;99.90;;;;;;5079918;28;20040;-82
2022/12/24 05:26:37;;;;;;;0.00;0.00;;;9.10;99.90;;;;;;5096469;28;20048;-82
2022/12/24 05:29:04;;;;;;;0.00;0.00;;;9.10;99.90;;;;;;5094805;28;20435;-82
2022/12/24 05:31:32;;;;;;;0.00;0.00;;;9.10;99.90;;;;;;5079401;28;20076;-82
2022/12/24 05:33:58;;;;;;;0.00;0.00;;;9.10;99.90;;;;;;5079316;28;20048;-82
2022/12/24 05:36:24;;;;;;;0.30;0.30;;;9.10;99.90;;;;;;5079049;28;20100;-82
2022/12/24 05:38:50;;;;;;;0.88;0.22;;;9.10;99.90;;;;;;5078927;28;20051;-82
2022/12/24 05:41:17;;;;;;;0.00;0.00;;;9.20;99.90;;;;;;5062603;28;20054;-82
2022/12/24 05:43:43;;;;;;;0.20;0.20;;;9.10;99.90;;;;;;5079306;28;20055;-82
2022/12/24 05:46:12;;;;;;;0.00;0.00;;;9.10;99.90;;;;;;5095907;28;20403;-82
2022/12/24 05:48:39;;;;;;;0.00;0.00;;;9.10;99.90;;;;;;5095659;28;20048;-81
2022/12/24 05:51:06;;;;;;;0.00;0.00;;;9.10;99.90;;;;;;5095606;28;20130;-82
2022/12/24 05:53:32;;;;;;;0.10;0.10;;;9.10;99.90;;;;;;5078885;28;20044;-82
2022/12/24 05:56:07;;;;;;;0.17;0.17;;;9.10;99.90;;;;;;5078134;28;20044;-82
2022/12/24 05:58:33;;;;;;;17.20;1.98;;;9.10;99.90;;;;;;5095584;28;20050;-81
2022/12/24 06:01:00;;;;;;;0.00;0.00;;;9.10;99.90;;;;;;5078661;28;20122;-81
2022/12/24 06:03:26;;;;;;;1.38;0.45;;;9.10;99.90;;;;;;5078280;28;20040;-82
2022/12/24 06:06:00;;;;;;;1.98;0.68;;;9.10;99.90;;;;;;5094848;28;20047;-82
2022/12/24 06:08:27;;;;;;;0.40;0.40;;;9.10;99.90;;;;;;5078456;28;20151;-81
2022/12/24 06:10:58;;;;;;;0.00;0.00;;;9.10;99.90;;;;;;5078203;28;20378;-82
2022/12/24 06:13:24;;;;;;;0.15;0.15;;;9.10;99.90;;;;;;5095410;28;20480;-81
2022/12/24 06:15:53;;;;;;;0.00;0.00;;;9.10;99.90;;;;;;5095201;28;20046;-82
2022/12/24 06:18:18;;;;;;;0.08;0.00;;;9.10;99.90;;;;;;5078325;28;20069;-82
2022/12/24 06:20:44;;;;;;;0.10;0.10;;;9.10;99.90;;;;;;5077963;28;20032;-82
2022/12/24 06:23:10;;;;;;;0.00;0.00;;;9.10;99.90;;;;;;5078342;28;20083;-82
2022/12/24 06:25:35;;;;;;;0.30;0.17;;;9.00;99.90;;;;;;5061510;28;20520;-82
2022/12/24 06:28:01;;;;;;;0.00;0.00;;;9.00;99.90;;;;;;5078068;28;20040;-82
2022/12/24 06:30:26;;;;;;;0.93;0.30;;;9.00;99.90;;;;;;5094772;28;20044;-82
2022/12/24 06:32:52;;;;;;;0.40;0.40;;;9.00;99.90;;;;;;5044758;28;20133;-81
2022/12/24 06:35:18;;;;;;;0.70;0.22;;;9.00;99.90;;;;;;5077463;28;20392;-82
2022/12/24 06:37:43;;;;;;;0.85;0.85;;;9.00;99.90;;;;;;5077196;28;20190;-81
2022/12/24 06:40:09;;;;;;;0.35;0.35;;;9.00;99.90;;;;;;5077844;28;20055;-82
2022/12/24 06:42:35;;;;;;;0.15;0.15;;;9.00;99.90;;;;;;5077784;28;20040;-81
2022/12/24 06:45:01;;;;;;;0.20;0.10;;;8.90;99.90;;;;;;5094572;28;20091;-81
2022/12/24 06:47:26;;;;;;;0.00;0.00;;;8.90;99.90;;;;;;5077730;28;20052;-81
2022/12/24 06:49:52;;;;;;;0.00;0.00;;;8.80;99.90;;;;;;5077998;28;20526;-81
2022/12/24 06:52:17;;;;;;;0.10;0.00;;;8.80;99.90;;;;;;5077667;28;20040;-81
2022/12/24 06:54:43;;;;;;;0.00;0.00;;;8.80;99.90;;;;;;5060948;28;20044;-81
2022/12/24 06:57:09;;;;;;;0.20;0.20;;;8.80;99.90;;;;;;5043939;28;20446;-81
2022/12/24 06:59:34;;;;;;;1.83;1.00;;;8.70;99.90;;;;;;5077479;28;20043;-81
2022/12/24 07:02:00;;;;;;;0.60;0.03;;;8.70;99.90;;;;;;5077688;28;20498;-81
2022/12/24 07:04:26;;;;;;;0.00;0.00;;;8.70;99.90;;;;;;5094224;28;20058;-81
2022/12/24 07:06:52;;;;;;;0.00;0.00;;;8.70;99.90;;;;;;5093583;28;20032;-82
2022/12/24 07:09:17;;;;;;;0.32;0.32;;;8.70;99.90;;;;;;5059785;28;20131;-82
2022/12/24 07:11:43;;;;;;;0.10;0.08;;;8.70;99.90;;;;;;5095323;28;20051;-84
2022/12/24 07:14:09;;;;;;;0.10;0.10;;;8.70;99.90;;;;;;5093888;28;20040;-83
2022/12/24 07:16:34;;;;;;;0.75;0.75;;;8.60;99.90;;;;;;5044082;28;20131;-82
2022/12/24 07:19:00;;;;;;;0.95;0.63;;;8.60;99.90;;;;;;5076872;28;20040;-82
2022/12/24 07:21:26;;;;;;;0.00;0.00;;;8.60;99.90;;;;;;5077069;28;20102;-82
2022/12/24 07:23:51;;;;;;;2.00;0.70;;;8.60;99.90;;;;;;5093962;28;20151;-82
2022/12/24 07:26:17;;;;;;;0.00;0.00;;;8.60;99.90;;;;;;5060388;28;20051;-82
2022/12/24 07:28:43;;;;;;;0.00;0.00;;;8.60;99.90;;;;;;5093838;28;20434;-81
2022/12/24 07:31:08;;;;;;;1.52;0.47;;;8.60;99.90;;;;;;5060570;28;20090;-81
2022/12/24 07:33:34;;;;;;;0.00;0.00;;;8.60;99.90;;;;;;5076810;28;20044;-82
2022/12/24 07:36:05;;;;;;;0.00;0.00;;;8.60;99.90;;;;;;5059580;28;20097;-82
2022/12/24 07:38:32;;;;;;;0.00;0.00;;;8.60;99.90;;;;;;5092965;28;20051;-81
2022/12/24 07:40:58;;;;;;;0.00;0.00;;;8.60;99.90;;;;;;5076806;28;20494;-82
2022/12/24 07:43:25;;;;;;;0.00;0.00;;;8.60;99.90;;;;;;5076730;28;20400;-82
2022/12/24 07:45:55;;;;;;;0.00;0.00;;;8.60;99.90;;;;;;5093439;28;20048;-81
2022/12/24 07:48:21;;;;;;;1.20;0.50;;;8.70;99.90;;;;;;5093417;28;20115;-81
2022/12/24 07:50:48;;;;;;;1.80;0.10;;;8.70;99.90;;;;;;5076472;28;20110;-82
2022/12/24 07:53:14;;;;;;;0.00;0.00;;;8.70;99.90;;;;;;5076444;28;20055;-82
2022/12/24 07:55:40;;;;;;;0.00;0.00;;;8.70;99.90;;;;;;5093642;28;20484;-82
2022/12/24 07:58:05;;;;;;;1.25;0.57;;;8.70;99.90;;;;;;5043085;28;20043;-84
2022/12/24 08:00:31;;;;;;;0.00;0.00;;;8.70;99.90;;;;;;5076430;28;20050;-83
2022/12/24 08:03:00;;;;;;;0.00;0.00;;;8.70;99.90;;;;;;5077544;28;20043;-83
2022/12/24 08:05:26;;;;;;;1.17;0.73;;;8.70;99.90;;;;;;5075695;28;20678;-83
2022/12/24 08:07:53;;;;;;;0.00;0.00;;;8.70;99.90;;;;;;5092821;28;20047;-83
2022/12/24 08:10:18;;;;;;;0.00;0.00;;;8.80;99.90;;;;;;5059332;28;20047;-83
2022/12/24 08:12:47;;;;;;;0.03;0.03;;;8.80;99.90;;;;;;5076295;28;20069;-83
2022/12/24 08:15:13;;;;;;;0.65;0.52;;;8.80;99.90;;;;;;5076789;28;20043;-83
2022/12/24 08:17:38;;;;;;;0.35;0.25;;;8.80;99.90;;;;;;5093187;28;20177;-83
2022/12/24 08:20:05;;;;;;;0.00;0.00;;;8.90;99.90;;;;;;5075914;28;20086;-83
2022/12/24 08:22:30;;;;;;;0.00;0.00;;;8.90;99.90;;;;;;5076645;28;20056;-82
2022/12/24 08:24:56;;;;;;;3.95;0.30;;;8.90;99.90;;;;;;5093509;28;20518;-83
2022/12/24 08:27:22;;;;;;;0.00;0.00;;;8.90;99.90;;;;;;5059560;28;20050;-84
2022/12/24 08:29:47;;;;;;;0.10;0.10;;;9.00;99.90;;;;;;5076813;28;20044;-85
2022/12/24 08:32:13;;;;;;;0.00;0.00;;;9.00;99.90;;;;;;5042747;28;20461;-83
2022/12/24 08:34:39;;;;;;;0.00;0.00;;;9.00;99.90;;;;;;5075916;28;20055;-83
2022/12/24 08:37:04;;;;;;;0.10;0.10;;;9.00;99.90;;;;;;5092164;28;20472;-83
2022/12/24 08:39:30;;;;;;;0.00;0.00;;;9.10;99.90;;;;;;5075135;28;20044;-83
2022/12/24 08:41:56;;;;;;;0.00;0.00;;;9.10;99.90;;;;;;5075878;28;20052;-83
2022/12/24 08:44:22;;;;;;;0.43;0.43;;;9.10;99.90;;;;;;5075846;28;20048;-82
2022/12/24 08:46:47;;;;;;;0.00;0.00;;;9.10;99.90;;;;;;5092810;28;20091;-82
2022/12/24 08:49:13;;;;;;;0.00;0.00;;;9.10;99.90;;;;;;5059830;28;20396;-82
2022/12/24 08:51:39;;;;;;;0.00;0.00;;;9.10;99.90;;;;;;5059094;28;20040;-83
2022/12/24 08:54:04;;;;;;;10.15;2.20;;;9.10;99.90;;;;;;5075850;28;20043;-83
2022/12/24 08:56:30;;;;;;;0.00;0.00;;;9.20;99.90;;;;;;5075701;28;20134;-83
2022/12/24 08:58:56;;;;;;;0.32;0.10;;;9.30;99.90;;;;;;5073411;28;20040;-83
2022/12/24 09:01:21;;;;;;;0.00;0.00;;;9.20;99.90;;;;;;5073163;28;20055;-83
2022/12/24 09:03:47;;;;;;;0.50;0.40;;;9.30;99.90;;;;;;5087208;28;20063;-84
2022/12/24 09:06:13;;;;;;;0.00;0.00;;;9.50;99.90;;;;;;5079875;28;20485;-83
2022/12/24 09:08:39;;;;;;;5.28;0.43;;;9.30;99.90;;;;;;5089811;28;20119;-83
2022/12/24 09:11:07;;;;;;;0.20;0.13;;;9.40;99.90;;;;;;5058992;28;20129;-83
2022/12/24 09:13:33;;;;;;;0.45;0.22;;;9.40;99.90;;;;;;5075468;28;20040;-83
2022/12/24 09:15:58;;;;;;;0.10;0.00;;;9.40;99.90;;;;;;5092379;28;20050;-83
2022/12/24 09:18:24;;;;;;;0.00;0.00;;;9.50;99.90;;;;;;5092100;28;20127;-83
2022/12/24 09:20:50;;;;;;;0.70;0.68;;;9.50;99.90;;;;;;5092058;28;20032;-85
2022/12/24 09:23:15;;;;;;;0.00;0.00;;;9.50;99.90;;;;;;5092165;28;20117;-83
2022/12/24 09:25:42;;;;;;;0.00;0.00;;;9.60;99.90;;;;;;5075469;28;20106;-82
2022/12/24 09:28:08;;;;;;;0.00;0.00;;;9.60;99.90;;;;;;5073848;28;20048;-82
2022/12/24 09:30:37;;;;;;;0.45;0.43;;;9.60;99.90;;;;;;5092093;28;20480;-82
2022/12/24 09:33:03;;;;;;;0.15;0.10;;;9.70;99.90;;;;;;5079075;28;20044;-82
2022/12/24 09:35:29;;;;;;;3.33;1.17;;;9.80;99.90;;;;;;5081201;28;20128;-82
2022/12/24 09:38:01;;;;;;;0.30;0.30;;;9.90;99.90;;;;;;5082758;28;20097;-82
2022/12/24 09:40:38;;;;;;;0.00;0.00;;;9.90;99.90;;;;;;5075514;28;20045;-82
2022/12/24 09:43:21;;;;;;;0.30;0.20;;;10.00;99.90;;;;;;5083188;28;20062;-82
2022/12/24 09:46:25;;;;;;;0.50;0.40;;;9.90;99.90;;;;;;5099327;28;20135;-82
2022/12/24 09:49:01;;;;;;;12.63;1.85;;;9.90;99.90;;;;;;5079663;28;20058;-83
2022/12/24 09:51:44;;;;;;;0.22;0.22;;;9.90;99.90;;;;;;5095537;28;20051;-82
2022/12/24 09:54:48;;;;;;;2.90;0.52;;;9.90;99.90;;;;;;5095611;28;20403;-81
2022/12/24 09:57:22;;;;;;;0.20;0.20;;;9.90;99.90;;;;;;4998333;28;20054;-82
2022/12/24 09:59:49;;;;;;;0.20;0.20;;;9.90;99.90;;;;;;5062914;28;20140;-83
2022/12/24 10:02:17;;;;;;;2.30;0.90;;;9.90;99.90;;;;;;5095502;28;20063;-81
2022/12/24 10:04:44;;;;;;;0.15;0.15;;;9.90;99.90;;;;;;5095134;28;20499;-79
2022/12/24 10:07:31;;;;;;;1.55;0.80;;;9.80;99.90;;;;;;5061273;28;20048;-82
2022/12/24 10:10:22;;;;;;;0.30;0.30;;;9.80;99.90;;;;;;5095345;28;20121;-82
2022/12/24 10:13:07;;;;;;;0.52;0.52;;;9.70;99.90;;;;;;5095465;28;20040;-83
2022/12/24 10:15:38;;;;;;;2.95;0.10;;;9.70;99.90;;;;;;5095498;28;20485;-83
2022/12/24 10:18:10;;;;;;;0.55;0.35;;;9.60;99.90;;;;;;5095010;28;20445;-82
2022/12/24 10:20:57;;;;;;;1.55;1.05;;;9.60;99.90;;;;;;5094824;28;20123;-83
2022/12/24 10:23:45;;;;;;;1.98;0.45;;;9.60;99.90;;;;;;5078460;28;20051;-84
2022/12/24 10:26:32;;;;;;;0.00;0.00;;;9.60;99.90;;;;;;5095110;28;20040;-87
2022/12/24 10:28:59;;;;;;;0.00;0.00;;;9.60;99.90;;;;;;5095900;28;20051;-88
2022/12/24 10:31:39;;;;;;;0.20;0.00;;;9.60;99.90;;;;;;5078901;28;20051;-88
2022/12/24 10:34:18;;;;;;;0.20;0.15;;;9.50;99.90;;;;;;5079390;28;20051;-88
2022/12/24 10:36:46;;;;;;;0.88;0.85;;;9.50;99.90;;;;;;5096893;28;20119;-88
2022/12/24 10:39:25;;;;;;;0.00;0.00;;;9.40;99.90;;;;;;5058324;28;20056;-88
2022/12/24 10:41:56;;;;;;;1.40;0.68;;;9.50;99.90;;;;;;5057784;28;20404;-87
2022/12/24 10:44:35;;;;;;;0.40;0.40;;;9.50;99.90;;;;;;5058539;28;20050;-88
2022/12/24 10:47:02;;;;;;;0.22;0.22;;;9.60;99.90;;;;;;5068002;28;20044;-88
2022/12/24 10:50:06;;;;;;;0.40;0.22;;;9.70;99.90;;;;;;5094836;28;20522;-88
2022/12/24 10:52:47;;;;;;;0.68;0.68;;;9.70;99.90;;;;;;5055974;28;20482;-87
2022/12/24 10:55:16;;;;;;;0.22;0.22;;;9.80;99.90;;;;;;5078368;28;20146;-86
2022/12/24 10:57:43;;;;;;;6.97;1.02;;;9.80;99.90;;;;;;5077914;28;20064;-86
2022/12/24 11:00:25;;;;;;;0.10;0.10;;;9.80;99.90;;;;;;5077923;28;20054;-86
2022/12/24 11:03:20;;;;;;;;;;;;;;;;;;;;;
2022/12/24 11:06:10;;;;;;;0.13;0.13;;;9.90;99.90;;;;;;5094160;28;20665;-84
2022/12/24 11:08:49;;;;;;;0.05;0.05;;;10.00;99.90;;;;;;5063811;28;20117;-86
2022/12/24 11:11:26;;;;;;;0.65;0.35;;;10.00;99.90;;;;;;5074444;28;20052;-86
2022/12/24 11:13:58;;;;;;;0.63;0.63;;;10.10;99.90;;;;;;5043936;28;20084;-86
2022/12/24 11:16:29;;;;;;;0.38;0.25;;;10.10;99.90;;;;;;5074636;28;20049;-86
2022/12/24 11:19:13;;;;;;;0.20;0.20;;;10.20;99.90;;;;;;5074412;28;20033;-87
2022/12/24 11:21:40;;;;;;;0.70;0.50;;;10.20;99.90;;;;;;5090460;28;20090;-86
2022/12/24 11:24:12;;;;;;;0.00;0.00;;;10.20;99.90;;;;;;5077264;28;20046;-86
2022/12/24 11:26:45;;;;;;;0.10;0.10;;;10.20;99.90;;;;;;5077818;28;20090;-86
2022/12/24 11:29:22;;;;;;;0.32;0.32;;;10.20;99.90;;;;;;5077631;28;20051;-86
2022/12/24 11:31:53;;;;;;;0.00;0.00;;;10.10;99.90;;;;;;5075499;28;20439;-86
2022/12/24 11:34:34;;;;;;;0.00;0.00;;;10.10;99.90;;;;;;5076003;28;20044;-87
2022/12/24 11:37:23;;;;;;;7.40;1.40;;;10.10;99.90;;;;;;5071259;28;20047;-86
2022/12/24 11:39:53;;;;;;;0.00;0.00;;;10.20;99.90;;;;;;5057596;28;20048;-86
2022/12/24 11:42:35;;;;;;;0.20;0.00;;;10.20;99.90;;;;;;5089502;28;20404;-86
2022/12/24 11:45:06;;;;;;;0.00;0.00;;;10.20;99.90;;;;;;5068700;28;20044;-86
2022/12/24 11:47:45;;;;;;;;;;;;;;;;;;;;;
2022/12/24 11:50:36;;;;;;;0.38;0.38;;;10.30;99.90;;;;;;5096988;28;20115;-87
2022/12/24 11:53:30;;;;;;;0.28;0.22;;;10.40;99.90;;;;;;5056532;28;20404;-87
2022/12/24 11:56:13;;;;;;;;;;;;;;;;;;;;;
2022/12/24 11:58:51;;;;;;;0.00;0.00;;;10.50;99.90;;;;;;5097300;28;20504;-86
2022/12/24 12:01:28;;;;;;;;;;;10.50;99.90;;;;;;5069287;28;20067;-87
2022/12/24 12:04:02;;;;;;;0.00;0.00;;;10.40;99.90;;;;;;5083525;28;19940;-86
2022/12/24 12:06:57;;;;;;;;;;;;;;;;;;;;;
2022/12/24 12:09:47;;;;;;;3.80;0.98;;;10.40;99.90;;;;;;5093464;28;20105;-86
2022/12/24 12:12:30;;;;;;;0.68;0.43;;;10.50;99.90;;;;;;5074848;28;20101;-87
2022/12/24 12:15:16;;;;;;;0.25;0.25;;;10.50;99.90;;;;;;5074252;28;20125;-87
2022/12/24 12:17:58;;;;;;;0.28;0.10;;;10.60;99.90;;;;;;5073549;28;20054;-87
2022/12/24 12:20:42;;;;;;;0.25;0.25;;;10.60;99.90;;;;;;5056310;28;20048;-87
2022/12/24 12:23:41;;;;;;;2.55;1.45;;;10.60;99.90;;;;;;5056631;28;20051;-87
2022/12/24 12:26:12;;;;;;;0.17;0.17;;;10.70;99.90;;;;;;5057165;28;20091;-88
2022/12/24 12:28:50;;;;;;;0.30;0.20;;;10.70;99.90;;;;;;5059497;28;20040;-87
2022/12/24 12:31:38;;;;;;;0.28;0.25;;;10.80;99.90;;;;;;5067776;28;20381;-87
2022/12/24 12:34:23;;;;;;;7.28;1.02;;;10.80;99.90;;;;;;5056673;28;20055;-86
2022/12/24 12:37:23;;;;;;;;;;;;;;;;;;;;;
2022/12/24 12:39:50;;;;;;;0.00;0.00;;;10.80;99.90;;;;;;5061969;28;20049;-87
2022/12/24 12:42:37;;;;;;;0.30;0.30;;;10.90;99.90;;;;;;5055931;28;20477;-86
2022/12/24 12:45:31;;;;;;;0.10;0.10;;;10.90;99.90;;;;;;5035954;28;20049;-87
2022/12/24 12:48:06;;;;;;;1.17;0.30;;;10.80;99.90;;;;;;5036329;28;20084;-86
2022/12/24 12:50:50;;;;;;;0.28;0.28;;;10.80;99.90;;;;;;5036434;28;20087;-87
2022/12/24 12:53:26;;;;;;;10.32;1.00;;;10.70;99.90;;;;;;5039811;28;20053;-87
2022/12/24 12:56:10;;;;;;;0.47;0.38;;;10.60;99.90;;;;;;5054916;28;20048;-86
2022/12/24 12:59:01;;;;;;;1.67;0.88;;;10.60;99.90;;;;;;5072299;28;20630;-86
2022/12/24 13:01:42;;;;;;;0.00;0.00;;;10.60;99.90;;;;;;5056220;28;20045;-87
2022/12/24 13:04:42;;;;;;;0.13;0.13;;;10.50;99.90;;;;;;5072879;28;20545;-87
2022/12/24 13:07:34;;;;;;;0.30;0.08;;;10.40;99.90;;;;;;5058520;28;20048;-89
2022/12/24 13:10:19;;;;;;;0.90;0.10;;;10.30;99.90;;;;;;5061112;28;20064;-89
2022/12/24 13:13:27;;;;;;;0.00;0.00;;;10.30;99.90;;;;;;5076884;28;20080;-91
2022/12/24 13:16:04;;;;;;;0.68;0.57;;;10.30;99.90;;;;;;5059779;28;20048;-89
2022/12/24 13:18:54;;;;;;;0.00;0.00;;;10.30;99.90;;;;;;5060696;28;20041;-88
2022/12/24 13:21:27;;;;;;;0.00;0.00;;;10.20;99.90;;;;;;5059725;28;20480;-86
2022/12/24 13:24:24;;;;;;;0.00;0.00;;;10.20;99.90;;;;;;5045898;28;20037;-85
2022/12/24 13:27:14;;;;;;;0.28;0.28;;;10.10;99.90;;;;;;5055702;28;20056;-86
2022/12/24 13:30:03;;;;;;;0.10;0.10;;;10.10;99.90;;;;;;5019764;28;20056;-85
2022/12/24 13:32:49;;;;;;;0.13;0.13;;;10.10;99.90;;;;;;5063367;28;20480;-86
2022/12/24 13:35:18;;;;;;;0.00;0.00;;;10.10;99.90;;;;;;5046383;28;20078;-86